Time;durP1;ratioP1;P1;durP2;ratioP2;P2;SDS_P1;SDS_P2;PMS_P1;PMS_P2;Temp;Humidity;BMP_temperature;BMP_pressure;BME280_temperature;BME280_humidity;BME280_pressure;Samples;Min_cycle;Max_cycle;Signal;HPM_P1;HPM_P2
2022/09/14 00:00:47;;;;;;;1999.90;999.90;;;19.60;99.90;;;;;;5014486;28;20200;-68
2022/09/14 00:03:13;;;;;;;1999.90;999.90;;;19.50;99.90;;;;;;5014653;28;20173;-68
2022/09/14 00:05:39;;;;;;;1999.90;999.90;;;19.50;99.90;;;;;;5014112;28;20407;-68
2022/09/14 00:08:04;;;;;;;1999.90;999.90;;;19.50;99.90;;;;;;5013876;28;20415;-68
2022/09/14 00:10:30;;;;;;;1999.90;999.90;;;19.50;99.90;;;;;;5012796;28;20175;-68
2022/09/14 00:12:56;;;;;;;1999.90;999.90;;;19.60;99.90;;;;;;5013623;28;20295;-68
2022/09/14 00:15:22;;;;;;;1999.90;999.90;;;19.70;99.90;;;;;;5013321;28;20177;-68
2022/09/14 00:17:47;;;;;;;1999.90;999.90;;;19.70;99.90;;;;;;5012940;28;20414;-68
2022/09/14 00:20:13;;;;;;;1999.90;999.90;;;19.70;99.90;;;;;;5013067;28;20241;-68
2022/09/14 00:22:39;;;;;;;1999.90;999.90;;;19.70;99.90;;;;;;5013417;28;20205;-68
2022/09/14 00:25:05;;;;;;;1999.90;999.90;;;19.70;99.90;;;;;;5013470;28;20165;-69
2022/09/14 00:27:32;;;;;;;1999.90;999.90;;;19.70;99.90;;;;;;5014209;28;20181;-68
2022/09/14 00:29:57;;;;;;;1999.90;999.90;;;19.70;99.90;;;;;;5014761;28;20417;-69
2022/09/14 00:32:23;;;;;;;1999.90;999.90;;;19.70;99.90;;;;;;5014327;28;20933;-68
2022/09/14 00:34:49;;;;;;;1999.90;999.90;;;19.70;99.90;;;;;;5013851;28;20173;-68
2022/09/14 00:37:14;;;;;;;1999.90;999.90;;;19.70;99.90;;;;;;5013885;28;20764;-68
2022/09/14 00:39:40;;;;;;;1999.90;999.90;;;19.70;99.90;;;;;;5012753;28;20204;-69
2022/09/14 00:42:06;;;;;;;1999.90;999.90;;;19.80;99.90;;;;;;5013583;28;20267;-68
2022/09/14 00:44:31;;;;;;;1999.90;999.90;;;19.80;99.90;;;;;;5014114;28;20197;-68
2022/09/14 00:47:00;;;;;;;1999.90;999.90;;;19.80;99.90;;;;;;5012576;28;20198;-68
2022/09/14 00:49:39;;;;;;;1999.90;999.90;;;19.80;99.90;;;;;;5012631;28;20165;-68
2022/09/14 00:52:16;;;;;;;1999.90;999.90;;;19.70;99.90;;;;;;5012563;28;20430;-68
2022/09/14 00:54:46;;;;;;;1999.90;999.90;;;19.60;99.90;;;;;;5012602;28;20424;-68
2022/09/14 00:57:13;;;;;;;1999.90;999.90;;;19.60;99.90;;;;;;5012284;28;20491;-69
2022/09/14 00:59:40;;;;;;;1999.90;999.90;;;19.60;99.90;;;;;;5014255;28;20823;-69
2022/09/14 01:02:09;;;;;;;1999.90;999.90;;;19.70;99.90;;;;;;5012924;28;20431;-69
2022/09/14 01:04:36;;;;;;;1999.90;999.90;;;19.60;99.90;;;;;;5013516;28;20429;-68
2022/09/14 01:07:26;;;;;;;1999.90;999.90;;;19.60;99.90;;;;;;5012176;28;20408;-68
2022/09/14 01:10:00;;;;;;;1999.90;999.90;;;19.60;99.90;;;;;;5012760;28;20410;-69
2022/09/14 01:12:55;;;;;;;1999.90;999.90;;;19.50;99.90;;;;;;5013912;28;20434;-68
2022/09/14 01:15:51;;;;;;;1999.90;999.90;;;19.40;99.90;;;;;;5014006;28;20415;-69
2022/09/14 01:18:26;;;;;;;1999.90;999.90;;;19.40;99.90;;;;;;5013993;28;20483;-68
2022/09/14 01:21:09;;;;;;;1999.90;999.90;;;19.40;99.90;;;;;;5012856;28;20497;-68
2022/09/14 01:24:05;;;;;;;1999.90;999.90;;;19.30;99.90;;;;;;5013634;28;20423;-68
2022/09/14 01:26:30;;;;;;;1999.90;999.90;;;19.20;99.90;;;;;;4991828;28;20765;-69
2022/09/14 01:28:58;;;;;;;1999.90;999.90;;;19.10;99.90;;;;;;5012858;28;20410;-68
2022/09/14 01:32:09;;;;;;;1999.90;999.90;;;19.10;99.90;;;;;;5012852;28;20192;-69
2022/09/14 01:34:41;;;;;;;1999.90;999.90;;;19.10;99.90;;;;;;5003967;28;20431;-69
2022/09/14 01:37:26;;;;;;;1999.90;999.90;;;19.10;99.90;;;;;;5012132;28;20506;-69
2022/09/14 01:39:58;;;;;;;1999.90;999.90;;;19.00;99.90;;;;;;5012280;28;20461;-68
2022/09/14 01:42:26;;;;;;;1999.90;999.90;;;19.00;99.90;;;;;;5012352;28;20507;-68
2022/09/14 01:44:57;;;;;;;1999.90;999.90;;;19.00;99.90;;;;;;5012487;28;20401;-68
2022/09/14 01:47:38;;;;;;;1999.90;999.90;;;19.00;99.90;;;;;;5012048;28;20893;-68
2022/09/14 01:50:32;;;;;;;1999.90;999.90;;;19.00;99.90;;;;;;4994425;28;20996;-68
2022/09/14 01:53:05;;;;;;;1999.90;999.90;;;19.00;99.90;;;;;;5011928;28;20516;-69
2022/09/14 01:55:43;;;;;;;1999.90;999.90;;;19.00;99.90;;;;;;5012300;28;20804;-68
2022/09/14 01:58:15;;;;;;;1999.90;999.90;;;19.00;99.90;;;;;;5012060;28;20468;-68
2022/09/14 02:00:44;;;;;;;1999.90;999.90;;;19.00;99.90;;;;;;5011869;28;20455;-69
2022/09/14 02:03:22;;;;;;;1999.90;999.90;;;19.00;99.90;;;;;;5011694;28;20430;-68
2022/09/14 02:06:17;;;;;;;1999.90;999.90;;;18.90;99.90;;;;;;5011868;28;20469;-68
2022/09/14 02:08:43;;;;;;;1999.90;999.90;;;18.90;99.90;;;;;;5009316;28;20425;-68
2022/09/14 02:11:09;;;;;;;1999.90;999.90;;;18.90;99.90;;;;;;5012371;28;20466;-69
2022/09/14 02:13:34;;;;;;;1999.90;999.90;;;18.90;99.90;;;;;;5012492;28;20171;-69
2022/09/14 02:16:00;;;;;;;1999.90;999.90;;;18.90;99.90;;;;;;5012240;28;20635;-69
2022/09/14 02:18:26;;;;;;;1999.90;999.90;;;18.90;99.90;;;;;;5012012;28;20300;-68
2022/09/14 02:20:59;;;;;;;1999.90;999.90;;;18.90;99.90;;;;;;5012072;28;20197;-68
2022/09/14 02:23:24;;;;;;;1999.90;999.90;;;18.90;99.90;;;;;;4994621;28;20263;-69
2022/09/14 02:25:50;;;;;;;1999.90;999.90;;;18.90;99.90;;;;;;5012103;28;20433;-68
2022/09/14 02:28:16;;;;;;;1999.90;999.90;;;18.90;99.90;;;;;;5012060;28;20168;-68
2022/09/14 02:30:51;;;;;;;1999.90;999.90;;;18.90;99.90;;;;;;5012051;28;20169;-68
2022/09/14 02:33:58;;;;;;;1999.90;999.90;;;18.90;99.90;;;;;;5013417;28;20413;-68
2022/09/14 02:36:33;;;;;;;1999.90;999.90;;;18.90;99.90;;;;;;4991606;28;20448;-70
2022/09/14 02:39:13;;;;;;;1999.90;999.90;;;18.90;99.90;;;;;;5015044;28;20926;-68
2022/09/14 02:41:56;;;;;;;1999.90;999.90;;;18.90;99.90;;;;;;5014943;28;20434;-68
2022/09/14 02:44:38;;;;;;;1999.90;999.90;;;18.90;99.90;;;;;;5015583;28;20503;-69
2022/09/14 02:47:22;;;;;;;1999.90;999.90;;;18.90;99.90;;;;;;5014948;28;20402;-68
2022/09/14 02:50:09;;;;;;;1999.90;999.90;;;18.80;99.90;;;;;;5014792;28;20395;-69
2022/09/14 02:52:52;;;;;;;1999.90;999.90;;;18.70;99.90;;;;;;5014985;28;20418;-69
2022/09/14 02:55:21;;;;;;;1999.90;999.90;;;18.70;99.90;;;;;;5015293;28;20822;-69
2022/09/14 02:58:04;;;;;;;1999.90;999.90;;;18.70;99.90;;;;;;5015084;28;20539;-69
2022/09/14 03:00:35;;;;;;;1999.90;999.90;;;18.70;99.90;;;;;;5015408;28;20489;-69
2022/09/14 03:03:01;;;;;;;1999.90;999.90;;;18.70;99.90;;;;;;5015050;28;20504;-69
2022/09/14 03:05:27;;;;;;;1999.90;999.90;;;18.70;99.90;;;;;;5014937;28;20488;-68
2022/09/14 03:07:52;;;;;;;1999.90;999.90;;;18.70;99.90;;;;;;5014786;28;20948;-69
2022/09/14 03:10:18;;;;;;;1999.90;999.90;;;18.70;99.90;;;;;;5015536;28;20173;-69
2022/09/14 03:12:43;;;;;;;1999.90;999.90;;;18.70;99.90;;;;;;5015312;28;20198;-68
2022/09/14 03:15:09;;;;;;;1999.90;999.90;;;18.70;99.90;;;;;;5015254;28;20191;-68
2022/09/14 03:17:35;;;;;;;1999.90;999.90;;;18.60;99.90;;;;;;5014386;28;20259;-68
2022/09/14 03:20:01;;;;;;;1999.90;999.90;;;18.60;99.90;;;;;;5014467;28;20454;-69
2022/09/14 03:22:26;;;;;;;1999.90;999.90;;;18.60;99.90;;;;;;5014842;28;20208;-69
2022/09/14 03:24:52;;;;;;;1999.90;999.90;;;18.60;99.90;;;;;;5015140;28;20416;-69
2022/09/14 03:27:17;;;;;;;1999.90;999.90;;;18.50;99.90;;;;;;5014666;28;20174;-69
2022/09/14 03:29:43;;;;;;;1999.90;999.90;;;18.50;99.90;;;;;;5015035;28;20627;-68
2022/09/14 03:32:11;;;;;;;1999.90;999.90;;;18.40;99.90;;;;;;5014315;28;20189;-69
2022/09/14 03:34:36;;;;;;;1999.90;999.90;;;18.40;99.90;;;;;;5014204;28;20178;-68
2022/09/14 03:37:02;;;;;;;1999.90;999.90;;;18.40;99.90;;;;;;5014275;28;20402;-68
2022/09/14 03:39:27;;;;;;;1999.90;999.90;;;18.30;99.90;;;;;;5014394;28;20169;-68
2022/09/14 03:41:53;;;;;;;1999.90;999.90;;;18.20;99.90;;;;;;5013843;28;20557;-68
2022/09/14 03:44:19;;;;;;;1999.90;999.90;;;18.10;99.90;;;;;;5013652;28;20169;-68
2022/09/14 03:46:44;;;;;;;1999.90;999.90;;;18.00;99.90;;;;;;5013570;28;20157;-68
2022/09/14 03:49:10;;;;;;;1999.90;999.90;;;18.10;99.90;;;;;;5013691;28;20403;-68
2022/09/14 03:51:36;;;;;;;1999.90;999.90;;;18.10;99.90;;;;;;5013584;28;20201;-68
2022/09/14 03:54:01;;;;;;;1999.90;999.90;;;18.20;99.90;;;;;;5013707;28;20176;-68
2022/09/14 03:56:27;;;;;;;1999.90;999.90;;;18.10;99.90;;;;;;5013264;28;20170;-68
2022/09/14 03:58:52;;;;;;;1999.90;999.90;;;18.10;99.90;;;;;;5013706;28;20225;-68
2022/09/14 04:01:20;;;;;;;1999.90;999.90;;;18.00;99.90;;;;;;5013624;28;20728;-68
2022/09/14 04:03:47;;;;;;;1999.90;999.90;;;18.00;99.90;;;;;;5013736;28;20171;-69
2022/09/14 04:06:14;;;;;;;1999.90;999.90;;;18.00;99.90;;;;;;5013340;28;20451;-68
2022/09/14 04:08:41;;;;;;;1999.90;999.90;;;18.00;99.90;;;;;;5013358;28;20482;-68
2022/09/14 04:11:18;;;;;;;1999.90;999.90;;;18.00;99.90;;;;;;5013376;28;20487;-68
2022/09/14 04:13:44;;;;;;;1999.90;999.90;;;18.00;99.90;;;;;;5013706;28;20403;-68
2022/09/14 04:16:10;;;;;;;1999.90;999.90;;;17.90;99.90;;;;;;5013744;28;20434;-68
2022/09/14 04:18:35;;;;;;;1999.90;999.90;;;17.90;99.90;;;;;;5013325;28;20412;-68
2022/09/14 04:21:06;;;;;;;1999.90;999.90;;;18.00;99.90;;;;;;5013149;28;20275;-68
2022/09/14 04:23:32;;;;;;;1999.90;999.90;;;18.10;99.90;;;;;;5013389;28;20173;-68
2022/09/14 04:25:58;;;;;;;1999.90;999.90;;;18.10;99.90;;;;;;5012967;28;20405;-68
2022/09/14 04:28:24;;;;;;;1999.90;999.90;;;18.20;99.90;;;;;;5012778;28;20636;-68
2022/09/14 04:31:01;;;;;;;1999.90;999.90;;;18.10;99.90;;;;;;5013547;28;20416;-68
2022/09/14 04:33:31;;;;;;;1999.90;999.90;;;18.20;99.90;;;;;;5013010;28;20259;-68
2022/09/14 04:35:57;;;;;;;1999.90;999.90;;;18.20;99.90;;;;;;5012772;28;20463;-69
2022/09/14 04:38:23;;;;;;;1999.90;999.90;;;18.20;99.90;;;;;;5012658;28;20493;-67
2022/09/14 04:40:49;;;;;;;1999.90;999.90;;;18.10;99.90;;;;;;5012643;28;20805;-68
2022/09/14 04:43:15;;;;;;;1999.90;999.90;;;18.00;99.90;;;;;;5012689;28;20413;-68
2022/09/14 04:45:40;;;;;;;1999.90;999.90;;;18.00;99.90;;;;;;5012766;28;20171;-68
2022/09/14 04:48:06;;;;;;;1999.90;999.90;;;18.00;99.90;;;;;;5012593;28;20164;-68
2022/09/14 04:50:32;;;;;;;1999.90;999.90;;;18.10;99.90;;;;;;5012616;28;20227;-68
2022/09/14 04:52:57;;;;;;;1999.90;999.90;;;18.10;99.90;;;;;;5012621;28;20273;-68
2022/09/14 04:55:23;;;;;;;1999.90;999.90;;;18.10;99.90;;;;;;5012243;28;20212;-68
2022/09/14 04:57:49;;;;;;;1999.90;999.90;;;18.10;99.90;;;;;;5012423;28;20552;-68
2022/09/14 05:00:15;;;;;;;1999.90;999.90;;;18.10;99.90;;;;;;5012607;28;20324;-68
2022/09/14 05:02:41;;;;;;;1999.90;999.90;;;18.20;99.90;;;;;;5012522;28;20464;-68
2022/09/14 05:05:07;;;;;;;1999.90;999.90;;;18.10;99.90;;;;;;5012579;28;20175;-68
2022/09/14 05:07:33;;;;;;;1999.90;999.90;;;18.10;99.90;;;;;;5012242;28;20235;-68
2022/09/14 05:09:58;;;;;;;1999.90;999.90;;;18.10;99.90;;;;;;5012520;28;20912;-68
2022/09/14 05:12:24;;;;;;;1999.90;999.90;;;18.10;99.90;;;;;;5012231;28;20282;-69
2022/09/14 05:14:50;;;;;;;1999.90;999.90;;;18.00;99.90;;;;;;5012417;28;20177;-68
2022/09/14 05:17:16;;;;;;;1999.90;999.90;;;17.90;99.90;;;;;;5012080;28;20175;-69
2022/09/14 05:19:41;;;;;;;1999.90;999.90;;;17.80;99.90;;;;;;5012191;28;20535;-68
2022/09/14 05:22:07;;;;;;;1999.90;999.90;;;17.80;99.90;;;;;;5012200;28;20206;-68
2022/09/14 05:24:32;;;;;;;1999.90;999.90;;;17.70;99.90;;;;;;5012294;28;20199;-68
2022/09/14 05:26:58;;;;;;;1999.90;999.90;;;17.60;99.90;;;;;;5011931;28;20303;-68
2022/09/14 05:29:24;;;;;;;1999.90;999.90;;;17.60;99.90;;;;;;5012188;28;20169;-68
2022/09/14 05:31:50;;;;;;;1999.90;999.90;;;17.50;99.90;;;;;;5012329;28;20232;-68
2022/09/14 05:34:15;;;;;;;1999.90;999.90;;;17.40;99.90;;;;;;5012216;28;20439;-68
2022/09/14 05:36:41;;;;;;;1999.90;999.90;;;17.30;99.90;;;;;;5011891;28;20182;-68
2022/09/14 05:39:08;;;;;;;1999.90;999.90;;;17.20;99.90;;;;;;5012153;28;20172;-68
2022/09/14 05:41:33;;;;;;;1999.90;999.90;;;17.20;99.90;;;;;;5011889;28;20206;-68
2022/09/14 05:43:59;;;;;;;1999.90;999.90;;;17.20;99.90;;;;;;5012086;28;20422;-68
2022/09/14 05:46:25;;;;;;;1999.90;999.90;;;17.10;99.90;;;;;;5011734;28;20306;-68
2022/09/14 05:48:51;;;;;;;1999.90;999.90;;;17.10;99.90;;;;;;5012013;28;20169;-68
2022/09/14 05:51:22;;;;;;;1999.90;999.90;;;17.00;99.90;;;;;;5011963;28;20441;-68
2022/09/14 05:53:49;;;;;;;1999.90;999.90;;;16.90;99.90;;;;;;5012007;28;20264;-68
2022/09/14 05:56:16;;;;;;;1999.90;999.90;;;16.90;99.90;;;;;;5011881;28;20411;-68
2022/09/14 05:58:42;;;;;;;1999.90;999.90;;;16.80;99.90;;;;;;5011977;28;20407;-68
2022/09/14 06:01:10;;;;;;;1999.90;999.90;;;16.70;99.90;;;;;;5011714;28;20517;-69
2022/09/14 06:03:36;;;;;;;1999.90;999.90;;;16.70;99.90;;;;;;5011763;28;20173;-68
2022/09/14 06:06:03;;;;;;;1999.90;999.90;;;16.70;99.90;;;;;;5011916;28;20410;-68
2022/09/14 06:08:29;;;;;;;1999.90;999.90;;;16.70;99.90;;;;;;5014031;28;20417;-69
2022/09/14 06:10:55;;;;;;;1999.90;999.90;;;16.60;99.90;;;;;;5015548;28;20407;-68
2022/09/14 06:13:22;;;;;;;1999.90;999.90;;;16.50;99.90;;;;;;5015535;28;20176;-68
2022/09/14 06:15:48;;;;;;;1999.90;999.90;;;16.50;99.90;;;;;;5015401;28;20178;-68
2022/09/14 06:18:13;;;;;;;1999.90;999.90;;;16.50;99.90;;;;;;5015255;28;20908;-68
2022/09/14 06:20:39;;;;;;;1999.90;999.90;;;16.70;99.90;;;;;;5015423;28;20242;-68
2022/09/14 06:23:04;;;;;;;1999.90;999.90;;;16.70;99.90;;;;;;5015763;28;20632;-68
2022/09/14 06:25:30;;;;;;;1999.90;999.90;;;16.80;99.90;;;;;;5015438;28;20172;-68
2022/09/14 06:27:55;;;;;;;1999.90;999.90;;;16.90;99.90;;;;;;5015003;28;20166;-67
2022/09/14 06:30:21;;;;;;;1999.90;999.90;;;16.80;99.90;;;;;;5015269;28;20177;-68
2022/09/14 06:32:47;;;;;;;1999.90;999.90;;;16.70;99.90;;;;;;5015193;28;20202;-68
2022/09/14 06:35:12;;;;;;;1999.90;999.90;;;16.70;99.90;;;;;;5015142;28;20174;-68
2022/09/14 06:37:38;;;;;;;1999.90;999.90;;;16.80;99.90;;;;;;5014930;28;20169;-68
2022/09/14 06:40:04;;;;;;;1999.90;999.90;;;16.80;99.90;;;;;;5015006;28;20195;-68
2022/09/14 06:42:30;;;;;;;1999.90;999.90;;;16.70;99.90;;;;;;5014898;28;20236;-68
2022/09/14 06:44:55;;;;;;;1999.90;999.90;;;16.70;99.90;;;;;;5014931;28;20439;-68
2022/09/14 06:47:22;;;;;;;1999.90;999.90;;;16.70;99.90;;;;;;5014570;28;20165;-68
2022/09/14 06:49:49;;;;;;;1999.90;999.90;;;16.70;99.90;;;;;;5014904;28;20168;-68
2022/09/14 06:52:15;;;;;;;1999.90;999.90;;;16.70;99.90;;;;;;5014813;28;20440;-68
2022/09/14 06:54:40;;;;;;;1999.90;999.90;;;16.70;99.90;;;;;;5014714;28;20466;-68
2022/09/14 06:57:06;;;;;;;1999.90;999.90;;;16.70;99.90;;;;;;5014458;28;20817;-69
2022/09/14 06:59:32;;;;;;;1999.90;999.90;;;16.80;99.90;;;;;;5014599;28;20169;-68
2022/09/14 07:01:57;;;;;;;1999.90;999.90;;;16.80;99.90;;;;;;5014524;28;20243;-68
2022/09/14 07:04:23;;;;;;;1999.90;999.90;;;16.90;99.90;;;;;;5014552;28;20642;-68
2022/09/14 07:06:50;;;;;;;1999.90;999.90;;;17.00;99.90;;;;;;5014541;28;20176;-68
2022/09/14 07:09:17;;;;;;;1999.90;999.90;;;17.00;99.90;;;;;;5014575;28;20487;-68
2022/09/14 07:11:43;;;;;;;1999.90;999.90;;;17.10;99.90;;;;;;5014348;28;20436;-68
2022/09/14 07:14:10;;;;;;;1999.90;999.90;;;17.20;99.90;;;;;;5014426;28;20829;-69
2022/09/14 07:16:37;;;;;;;1999.90;999.90;;;17.20;99.90;;;;;;5014153;28;20448;-68
2022/09/14 07:19:05;;;;;;;1999.90;999.90;;;17.30;99.90;;;;;;5013916;28;20410;-68
2022/09/14 07:21:32;;;;;;;1999.90;999.90;;;17.30;99.90;;;;;;5014022;28;20474;-68
2022/09/14 07:23:58;;;;;;;1999.90;999.90;;;17.40;99.90;;;;;;5014283;28;20459;-68
2022/09/14 07:26:34;;;;;;;1999.90;999.90;;;17.30;99.90;;;;;;5014014;28;20415;-68
2022/09/14 07:29:03;;;;;;;1999.90;999.90;;;17.30;99.90;;;;;;4996656;28;20409;-68
2022/09/14 07:31:31;;;;;;;1999.90;999.90;;;17.30;99.90;;;;;;5014146;28;20858;-68
2022/09/14 07:33:58;;;;;;;1999.90;999.90;;;17.20;99.90;;;;;;5014209;28;20785;-68
2022/09/14 07:36:26;;;;;;;1999.90;999.90;;;17.20;99.90;;;;;;5013851;28;20400;-68
2022/09/14 07:38:52;;;;;;;1999.90;999.90;;;17.20;99.90;;;;;;5013938;28;20439;-68
2022/09/14 07:41:19;;;;;;;1999.90;999.90;;;17.20;99.90;;;;;;5013827;28;20470;-68
2022/09/14 07:43:48;;;;;;;1999.90;999.90;;;17.20;99.90;;;;;;5014151;28;20409;-68
2022/09/14 07:46:14;;;;;;;1999.90;999.90;;;17.30;99.90;;;;;;5013726;28;20403;-68
2022/09/14 07:48:40;;;;;;;1999.90;999.90;;;17.30;99.90;;;;;;5013576;28;20469;-68
2022/09/14 07:51:07;;;;;;;1999.90;999.90;;;17.30;99.90;;;;;;5013679;28;20248;-68
2022/09/14 07:53:41;;;;;;;1999.90;999.90;;;17.30;99.90;;;;;;5013695;28;20168;-68
2022/09/14 07:56:08;;;;;;;1999.90;999.90;;;17.40;99.90;;;;;;5013555;28;20419;-68
2022/09/14 07:58:34;;;;;;;1999.90;999.90;;;17.40;99.90;;;;;;5013360;28;20442;-69
2022/09/14 08:01:01;;;;;;;1999.90;999.90;;;17.40;99.90;;;;;;5013375;28;20453;-69
2022/09/14 08:03:28;;;;;;;1999.90;999.90;;;17.40;99.90;;;;;;5013523;28;20260;-68
2022/09/14 08:05:59;;;;;;;1999.90;999.90;;;17.40;99.90;;;;;;5013423;28;20936;-68
2022/09/14 08:08:26;;;;;;;1999.90;999.90;;;17.50;99.90;;;;;;5013556;28;20412;-68
2022/09/14 08:10:52;;;;;;;1999.90;999.90;;;17.50;99.90;;;;;;5013207;28;20420;-68
2022/09/14 08:13:17;;;;;;;1999.90;999.90;;;17.60;99.90;;;;;;5013395;28;20492;-69
2022/09/14 08:15:43;;;;;;;1999.90;999.90;;;17.60;99.90;;;;;;5013301;28;20169;-68
2022/09/14 08:18:09;;;;;;;1999.90;999.90;;;17.60;99.90;;;;;;5010903;28;20169;-68
2022/09/14 08:20:35;;;;;;;1999.90;999.90;;;17.60;99.90;;;;;;5014017;28;20181;-68
2022/09/14 08:23:01;;;;;;;1999.90;999.90;;;17.60;99.90;;;;;;5012681;28;20542;-69
2022/09/14 08:25:26;;;;;;;1999.90;999.90;;;17.60;99.90;;;;;;5010015;28;20178;-71
2022/09/14 08:27:52;;;;;;;1999.90;999.90;;;17.50;99.90;;;;;;5011607;28;20159;-69
2022/09/14 08:30:18;;;;;;;1999.90;999.90;;;17.50;99.90;;;;;;5011741;28;20204;-69
2022/09/14 08:32:44;;;;;;;1999.90;999.90;;;17.60;99.90;;;;;;5013462;28;20433;-68
2022/09/14 08:35:10;;;;;;;1999.90;999.90;;;17.60;99.90;;;;;;5014592;28;20165;-68
2022/09/14 08:37:36;;;;;;;1999.90;999.90;;;17.50;99.90;;;;;;5013279;28;20776;-68
2022/09/14 08:40:02;;;;;;;1999.90;999.90;;;17.50;99.90;;;;;;5012188;28;20197;-70
2022/09/14 08:42:29;;;;;;;1999.90;999.90;;;17.50;99.90;;;;;;5011611;28;20212;-70
2022/09/14 08:45:01;;;;;;;1999.90;999.90;;;17.50;99.90;;;;;;5012091;28;20412;-69
2022/09/14 08:47:27;;;;;;;1999.90;999.90;;;17.50;99.90;;;;;;5011803;28;20909;-69
2022/09/14 08:50:04;;;;;;;1999.90;999.90;;;17.60;99.90;;;;;;5011493;28;20409;-69
2022/09/14 08:52:54;;;;;;;1999.90;999.90;;;17.60;99.90;;;;;;5011974;28;20198;-70
2022/09/14 08:55:28;;;;;;;1999.90;999.90;;;17.60;99.90;;;;;;5011502;28;20415;-70
2022/09/14 08:58:03;;;;;;;1999.90;999.90;;;17.60;99.90;;;;;;5011819;28;20952;-70
2022/09/14 09:00:40;;;;;;;1999.90;999.90;;;17.70;99.90;;;;;;5011627;28;20441;-69
2022/09/14 09:03:36;;;;;;;1999.90;999.90;;;17.60;99.90;;;;;;5011242;28;20427;-70
2022/09/14 09:06:04;;;;;;;1999.90;999.90;;;17.60;99.90;;;;;;5011688;28;20399;-69
2022/09/14 09:08:48;;;;;;;1999.90;999.90;;;17.50;99.90;;;;;;5011501;28;20406;-70
2022/09/14 09:11:18;;;;;;;1999.90;999.90;;;17.40;99.90;;;;;;5011261;28;20520;-69
2022/09/14 09:13:45;;;;;;;1999.90;999.90;;;17.40;99.90;;;;;;5011636;28;20422;-70
2022/09/14 09:16:15;;;;;;;1999.90;999.90;;;17.30;99.90;;;;;;5011445;28;20404;-70
2022/09/14 09:18:48;;;;;;;1999.90;999.90;;;17.40;99.90;;;;;;5011093;28;20400;-70
2022/09/14 09:21:24;;;;;;;1999.90;999.90;;;17.40;99.90;;;;;;5011345;28;20477;-70
2022/09/14 09:23:50;;;;;;;1999.90;999.90;;;17.50;99.90;;;;;;5011701;28;20768;-70
2022/09/14 09:26:26;;;;;;;1999.90;999.90;;;17.50;99.90;;;;;;5010992;28;20405;-70
2022/09/14 09:28:55;;;;;;;1999.90;999.90;;;17.60;99.90;;;;;;5011504;28;20395;-70
2022/09/14 09:31:31;;;;;;;1999.90;999.90;;;17.50;99.90;;;;;;5011431;28;20799;-69
2022/09/14 09:33:56;;;;;;;1999.90;999.90;;;17.40;99.90;;;;;;5010898;28;20404;-70
2022/09/14 09:36:22;;;;;;;1999.90;999.90;;;17.30;99.90;;;;;;5011177;28;20772;-69
2022/09/14 09:38:48;;;;;;;1999.90;999.90;;;17.20;99.90;;;;;;5011295;28;20168;-69
2022/09/14 09:41:26;;;;;;;1999.90;999.90;;;17.20;99.90;;;;;;5011259;28;20258;-70
2022/09/14 09:44:09;;;;;;;1999.90;999.90;;;17.30;99.90;;;;;;5015483;28;20627;-69
2022/09/14 09:46:45;;;;;;;1999.90;999.90;;;17.20;99.90;;;;;;5015060;28;20417;-69
2022/09/14 09:49:21;;;;;;;1999.90;999.90;;;17.20;99.90;;;;;;5014999;28;20455;-69
2022/09/14 09:51:48;;;;;;;1999.90;999.90;;;17.20;99.90;;;;;;5015103;28;20435;-69
2022/09/14 09:54:14;;;;;;;1999.90;999.90;;;17.20;99.90;;;;;;5014917;28;20407;-69
2022/09/14 09:56:53;;;;;;;1999.90;999.90;;;17.20;99.90;;;;;;5014711;28;20452;-70
2022/09/14 09:59:22;;;;;;;1999.90;999.90;;;17.20;99.90;;;;;;5015078;28;20178;-69
2022/09/14 10:01:48;;;;;;;1999.90;999.90;;;17.10;99.90;;;;;;5014411;28;20463;-70
2022/09/14 10:04:17;;;;;;;1999.90;999.90;;;17.10;99.90;;;;;;5015075;28;21110;-70
2022/09/14 10:06:48;;;;;;;1999.90;999.90;;;17.10;99.90;;;;;;5014603;28;20179;-70
2022/09/14 10:09:28;;;;;;;1999.90;999.90;;;17.00;99.90;;;;;;5014454;28;20400;-69
2022/09/14 10:12:01;;;;;;;1999.90;999.90;;;17.00;99.90;;;;;;5014884;28;20520;-69
2022/09/14 10:14:31;;;;;;;1999.90;999.90;;;17.10;99.90;;;;;;5014805;28;20408;-69
2022/09/14 10:17:23;;;;;;;1999.90;999.90;;;17.20;99.90;;;;;;5014071;28;20418;-69
2022/09/14 10:19:53;;;;;;;1999.90;999.90;;;17.40;99.90;;;;;;5010688;28;20492;-69
2022/09/14 10:22:29;;;;;;;1999.90;999.90;;;17.40;99.90;;;;;;5014581;28;20535;-69
2022/09/14 10:25:16;;;;;;;1999.90;999.90;;;17.50;99.90;;;;;;5014281;28;20781;-70
2022/09/14 10:27:56;;;;;;;1999.90;999.90;;;17.60;99.90;;;;;;5004024;28;20416;-70
2022/09/14 10:30:24;;;;;;;1999.90;999.90;;;17.60;99.90;;;;;;5014614;28;20479;-69
2022/09/14 10:33:02;;;;;;;1999.90;999.90;;;17.70;99.90;;;;;;5013996;28;20438;-70
2022/09/14 10:35:33;;;;;;;1999.90;999.90;;;17.60;99.90;;;;;;5014430;28;20443;-70
2022/09/14 10:38:17;;;;;;;1999.90;999.90;;;17.70;99.90;;;;;;5014186;28;20412;-69
2022/09/14 10:40:48;;;;;;;1999.90;999.90;;;17.60;99.90;;;;;;5013988;28;20477;-69
2022/09/14 10:43:30;;;;;;;1999.90;999.90;;;17.60;99.90;;;;;;5014405;28;20401;-70
2022/09/14 10:46:01;;;;;;;1999.90;999.90;;;17.60;99.90;;;;;;5014257;28;20397;-69
2022/09/14 10:48:39;;;;;;;1999.90;999.90;;;17.70;99.90;;;;;;5013864;28;20398;-70
2022/09/14 10:51:29;;;;;;;1999.90;999.90;;;17.70;99.90;;;;;;5013919;28;20765;-69
2022/09/14 10:54:12;;;;;;;1999.90;999.90;;;17.80;99.90;;;;;;5012926;28;20818;-69
2022/09/14 10:57:03;;;;;;;1999.90;999.90;;;17.90;99.90;;;;;;5013844;28;20401;-69
2022/09/14 10:59:49;;;;;;;1999.90;999.90;;;18.00;99.90;;;;;;5014025;28;20406;-69
2022/09/14 11:02:41;;;;;;;1999.90;999.90;;;18.10;99.90;;;;;;5013382;28;20837;-69
2022/09/14 11:05:26;;;;;;;1999.90;999.90;;;18.20;99.90;;;;;;5005647;28;20444;-70
2022/09/14 11:07:54;;;;;;;1999.90;999.90;;;18.20;99.90;;;;;;5013405;28;20933;-69
2022/09/14 11:10:28;;;;;;;1999.90;999.90;;;18.20;99.90;;;;;;5013060;28;20403;-69
2022/09/14 11:12:54;;;;;;;1999.90;999.90;;;18.20;99.90;;;;;;5013828;28;20848;-69
2022/09/14 11:15:34;;;;;;;1999.90;999.90;;;18.20;99.90;;;;;;5013806;28;20411;-70
2022/09/14 11:18:05;;;;;;;1999.90;999.90;;;18.30;99.90;;;;;;5013498;28;20177;-70
2022/09/14 11:20:55;;;;;;;1999.90;999.90;;;18.30;99.90;;;;;;4996772;28;20457;-71
2022/09/14 11:23:51;;;;;;;1999.90;999.90;;;18.40;99.90;;;;;;5013969;28;20404;-70
2022/09/14 11:26:31;;;;;;;1999.90;999.90;;;18.50;99.90;;;;;;5014012;28;20456;-70
2022/09/14 11:29:05;;;;;;;1999.90;999.90;;;18.60;99.90;;;;;;5013825;28;20390;-70
2022/09/14 11:31:45;;;;;;;1999.90;999.90;;;18.70;99.90;;;;;;5013145;28;20429;-69
2022/09/14 11:34:34;;;;;;;1999.90;999.90;;;18.70;99.90;;;;;;5014547;28;20811;-71
2022/09/14 11:37:07;;;;;;;1999.90;999.90;;;18.70;99.90;;;;;;5014088;28;20897;-70
2022/09/14 11:39:36;;;;;;;1999.90;999.90;;;18.70;99.90;;;;;;5013233;28;20403;-70
2022/09/14 11:42:07;;;;;;;1999.90;999.90;;;18.80;99.90;;;;;;5013474;28;20789;-69
2022/09/14 11:44:38;;;;;;;1999.90;999.90;;;18.90;99.90;;;;;;5013608;28;20966;-70
2022/09/14 11:47:17;;;;;;;1999.90;999.90;;;18.80;99.90;;;;;;5012665;28;20761;-70
2022/09/14 11:49:57;;;;;;;1999.90;999.90;;;18.80;99.90;;;;;;5013463;28;20443;-70
2022/09/14 11:52:28;;;;;;;1999.90;999.90;;;18.80;99.90;;;;;;5013323;28;20958;-70
2022/09/14 11:54:55;;;;;;;1999.90;999.90;;;18.80;99.90;;;;;;5012782;28;20418;-69
2022/09/14 11:57:24;;;;;;;1999.90;999.90;;;18.80;99.90;;;;;;5011048;28;20468;-68
2022/09/14 11:59:53;;;;;;;1999.90;999.90;;;18.80;99.90;;;;;;5012706;28;20504;-68
2022/09/14 12:02:21;;;;;;;1999.90;999.90;;;18.80;99.90;;;;;;5012348;28;20445;-69
2022/09/14 12:05:05;;;;;;;1999.90;999.90;;;18.80;99.90;;;;;;5012749;28;20410;-68
2022/09/14 12:07:46;;;;;;;1999.90;999.90;;;18.60;99.90;;;;;;5012036;28;20399;-69
2022/09/14 12:10:17;;;;;;;1999.90;999.90;;;18.60;99.90;;;;;;5012685;28;20464;-68
2022/09/14 12:12:57;;;;;;;1999.90;999.90;;;18.50;99.90;;;;;;5012325;28;20430;-69
2022/09/14 12:15:25;;;;;;;1999.90;999.90;;;18.50;99.90;;;;;;5025293;28;20435;-69